<?xml version="1.0" encoding="UTF-8" standalone="no" ?>
<gpx xmlns="http://www.topografix.com/GPX/1/1" xmlns:xsi="http://www.w3.org/2001/XMLSchema-instance" xsi:schemaLocation="http://www.topografix.com/GPX/1/1 http://www.topografix.com/GPX/1/1/gpx.xsd" version="1.1" creator="VisuGPX - https://www.visugpx.com">
  <metadata>
    <name>WArm up du cahteau de berne 2011 </name>
    <desc><![CDATA[Le tracé 2011 liaison et spéciales]]></desc>
  </metadata>
  <wpt lat="43.52545" lon="6.35781">
    <ele>341.151001</ele>
    <name><![CDATA[Depart Sp1]]></name>
    <desc><![CDATA[10-AVR-11 13:43:44]]></desc>
    <cmt><![CDATA[10-AVR-11 13:43:44]]></cmt>
  </wpt>
  <wpt lat="43.52449" lon="6.36479">
    <ele>321.6844482</ele>
    <name><![CDATA[Sp2]]></name>
    <desc><![CDATA[10-AVR-11 14:14:27]]></desc>
    <cmt><![CDATA[10-AVR-11 14:14:27]]></cmt>
  </wpt>
  <trk>
    <name><![CDATA[ACTIVE LOG 003]]></name>
    <trkseg>
      <trkpt lat="43.51697" lon="6.36446">
        <ele>289.9748535</ele>
        <time>2011-04-10T11:19:37Z</time>
      </trkpt>
      <trkpt lat="43.51709" lon="6.36482">
        <ele>293.8200684</ele>
        <time>2011-04-10T11:21:37Z</time>
      </trkpt>
      <trkpt lat="43.51738" lon="6.36521">
        <ele>296.7041016</ele>
        <time>2011-04-10T11:21:49Z</time>
      </trkpt>
      <trkpt lat="43.51726" lon="6.36652">
        <ele>301.991333</ele>
        <time>2011-04-10T11:22:04Z</time>
      </trkpt>
      <trkpt lat="43.51776" lon="6.36698">
        <ele>298.1461182</ele>
        <time>2011-04-10T11:22:16Z</time>
      </trkpt>
      <trkpt lat="43.51792" lon="6.36714">
        <ele>289.4941406</ele>
        <time>2011-04-10T11:23:18Z</time>
      </trkpt>
      <trkpt lat="43.51824" lon="6.36701">
        <ele>290.9361572</ele>
        <time>2011-04-10T11:23:51Z</time>
      </trkpt>
      <trkpt lat="43.51864" lon="6.36728">
        <ele>300.0687256</ele>
        <time>2011-04-10T11:24:10Z</time>
      </trkpt>
      <trkpt lat="43.519" lon="6.36706">
        <ele>308.720459</ele>
        <time>2011-04-10T11:24:28Z</time>
      </trkpt>
      <trkpt lat="43.51934" lon="6.36668">
        <ele>309.2011719</ele>
        <time>2011-04-10T11:24:59Z</time>
      </trkpt>
      <trkpt lat="43.51932" lon="6.36626">
        <ele>309.6818848</ele>
        <time>2011-04-10T11:25:28Z</time>
      </trkpt>
      <trkpt lat="43.51934" lon="6.36581">
        <ele>310.1624756</ele>
        <time>2011-04-10T11:25:55Z</time>
      </trkpt>
      <trkpt lat="43.5189" lon="6.36543">
        <ele>306.7978516</ele>
        <time>2011-04-10T11:26:21Z</time>
      </trkpt>
      <trkpt lat="43.51885" lon="6.36491">
        <ele>303.9139404</ele>
        <time>2011-04-10T11:26:48Z</time>
      </trkpt>
      <trkpt lat="43.51854" lon="6.36465">
        <ele>305.355957</ele>
        <time>2011-04-10T11:27:13Z</time>
      </trkpt>
      <trkpt lat="43.51819" lon="6.3645">
        <ele>306.3172607</ele>
        <time>2011-04-10T11:27:33Z</time>
      </trkpt>
      <trkpt lat="43.51827" lon="6.36412">
        <ele>310.1624756</ele>
        <time>2011-04-10T11:28:01Z</time>
      </trkpt>
      <trkpt lat="43.51864" lon="6.36384">
        <ele>330.8309326</ele>
        <time>2011-04-10T11:28:31Z</time>
      </trkpt>
      <trkpt lat="43.51892" lon="6.3635">
        <ele>350.5378418</ele>
        <time>2011-04-10T11:28:58Z</time>
      </trkpt>
      <trkpt lat="43.51883" lon="6.36293">
        <ele>351.0184326</ele>
        <time>2011-04-10T11:29:26Z</time>
      </trkpt>
      <trkpt lat="43.51853" lon="6.36261">
        <ele>342.84729</ele>
        <time>2011-04-10T11:29:51Z</time>
      </trkpt>
      <trkpt lat="43.51828" lon="6.36224">
        <ele>335.1567383</ele>
        <time>2011-04-10T11:30:11Z</time>
      </trkpt>
      <trkpt lat="43.51814" lon="6.36178">
        <ele>330.3502197</ele>
        <time>2011-04-10T11:30:36Z</time>
      </trkpt>
      <trkpt lat="43.51792" lon="6.36131">
        <ele>326.9855957</ele>
        <time>2011-04-10T11:31:01Z</time>
      </trkpt>
      <trkpt lat="43.51781" lon="6.36084">
        <ele>328.4276123</ele>
        <time>2011-04-10T11:31:23Z</time>
      </trkpt>
      <trkpt lat="43.518" lon="6.36011">
        <ele>327.4661865</ele>
        <time>2011-04-10T11:31:46Z</time>
      </trkpt>
      <trkpt lat="43.51815" lon="6.35959">
        <ele>326.9855957</ele>
        <time>2011-04-10T11:31:59Z</time>
      </trkpt>
      <trkpt lat="43.51829" lon="6.35884">
        <ele>326.5048828</ele>
        <time>2011-04-10T11:32:14Z</time>
      </trkpt>
      <trkpt lat="43.51793" lon="6.35857">
        <ele>326.5048828</ele>
        <time>2011-04-10T11:32:31Z</time>
      </trkpt>
      <trkpt lat="43.51764" lon="6.3579">
        <ele>327.4661865</ele>
        <time>2011-04-10T11:32:54Z</time>
      </trkpt>
      <trkpt lat="43.51752" lon="6.35745">
        <ele>325.0629883</ele>
        <time>2011-04-10T11:33:05Z</time>
      </trkpt>
      <trkpt lat="43.51733" lon="6.35695">
        <ele>323.6209717</ele>
        <time>2011-04-10T11:33:21Z</time>
      </trkpt>
      <trkpt lat="43.51742" lon="6.35622">
        <ele>328.4276123</ele>
        <time>2011-04-10T11:33:44Z</time>
      </trkpt>
      <trkpt lat="43.51752" lon="6.35573">
        <ele>329.388916</ele>
        <time>2011-04-10T11:33:55Z</time>
      </trkpt>
      <trkpt lat="43.51758" lon="6.35514">
        <ele>332.2728271</ele>
        <time>2011-04-10T11:34:12Z</time>
      </trkpt>
      <trkpt lat="43.51777" lon="6.35443">
        <ele>338.5214844</ele>
        <time>2011-04-10T11:34:37Z</time>
      </trkpt>
      <trkpt lat="43.51786" lon="6.35374">
        <ele>336.1181641</ele>
        <time>2011-04-10T11:34:50Z</time>
      </trkpt>
      <trkpt lat="43.51802" lon="6.3531">
        <ele>332.2728271</ele>
        <time>2011-04-10T11:35:04Z</time>
      </trkpt>
      <trkpt lat="43.51824" lon="6.35246">
        <ele>327.9467773</ele>
        <time>2011-04-10T11:35:18Z</time>
      </trkpt>
      <trkpt lat="43.51848" lon="6.35203">
        <ele>326.9855957</ele>
        <time>2011-04-10T11:35:27Z</time>
      </trkpt>
      <trkpt lat="43.51886" lon="6.35138">
        <ele>326.5048828</ele>
        <time>2011-04-10T11:35:43Z</time>
      </trkpt>
      <trkpt lat="43.5193" lon="6.35171">
        <ele>327.9467773</ele>
        <time>2011-04-10T11:36:01Z</time>
      </trkpt>
      <trkpt lat="43.51975" lon="6.35208">
        <ele>329.388916</ele>
        <time>2011-04-10T11:36:15Z</time>
      </trkpt>
      <trkpt lat="43.52017" lon="6.35243">
        <ele>331.3115234</ele>
        <time>2011-04-10T11:36:29Z</time>
      </trkpt>
      <trkpt lat="43.52089" lon="6.35293">
        <ele>334.1954346</ele>
        <time>2011-04-10T11:36:55Z</time>
      </trkpt>
      <trkpt lat="43.52134" lon="6.3533">
        <ele>331.3115234</ele>
        <time>2011-04-10T11:37:02Z</time>
      </trkpt>
      <trkpt lat="43.52178" lon="6.35358">
        <ele>332.2728271</ele>
        <time>2011-04-10T11:37:19Z</time>
      </trkpt>
      <trkpt lat="43.52221" lon="6.35377">
        <ele>336.598877</ele>
        <time>2011-04-10T11:39:47Z</time>
      </trkpt>
      <trkpt lat="43.52278" lon="6.35423">
        <ele>339.9633789</ele>
        <time>2011-04-10T11:40:14Z</time>
      </trkpt>
      <trkpt lat="43.52318" lon="6.35458">
        <ele>340.9246826</ele>
        <time>2011-04-10T11:40:32Z</time>
      </trkpt>
      <trkpt lat="43.52351" lon="6.35484">
        <ele>340.4440918</ele>
        <time>2011-04-10T11:40:43Z</time>
      </trkpt>
      <trkpt lat="43.52396" lon="6.35524">
        <ele>338.0407715</ele>
        <time>2011-04-10T11:40:57Z</time>
      </trkpt>
      <trkpt lat="43.52448" lon="6.35544">
        <ele>331.3115234</ele>
        <time>2011-04-10T11:41:10Z</time>
      </trkpt>
      <trkpt lat="43.52478" lon="6.35544">
        <ele>328.4276123</ele>
        <time>2011-04-10T11:41:23Z</time>
      </trkpt>
      <trkpt lat="43.52499" lon="6.35637">
        <ele>326.9855957</ele>
        <time>2011-04-10T11:41:40Z</time>
      </trkpt>
      <trkpt lat="43.52521" lon="6.35704">
        <ele>325.5435791</ele>
        <time>2011-04-10T11:41:53Z</time>
      </trkpt>
      <trkpt lat="43.52538" lon="6.35762">
        <ele>336.598877</ele>
        <time>2011-04-10T11:42:14Z</time>
      </trkpt>
      <trkpt lat="43.52549" lon="6.35806">
        <ele>335.6373291</ele>
        <time>2011-04-10T11:52:09Z</time>
      </trkpt>
      <trkpt lat="43.52568" lon="6.35857">
        <ele>341.8859863</ele>
        <time>2011-04-10T11:57:54Z</time>
      </trkpt>
      <trkpt lat="43.52578" lon="6.35914">
        <ele>338.0407715</ele>
        <time>2011-04-10T12:00:38Z</time>
      </trkpt>
      <trkpt lat="43.52637" lon="6.35975">
        <ele>342.3666992</ele>
        <time>2011-04-10T12:00:53Z</time>
      </trkpt>
      <trkpt lat="43.5268" lon="6.35976">
        <ele>333.2341309</ele>
        <time>2011-04-10T12:01:01Z</time>
      </trkpt>
      <trkpt lat="43.52714" lon="6.36006">
        <ele>325.0629883</ele>
        <time>2011-04-10T12:01:13Z</time>
      </trkpt>
      <trkpt lat="43.52747" lon="6.36004">
        <ele>311.1237793</ele>
        <time>2011-04-10T12:01:32Z</time>
      </trkpt>
      <trkpt lat="43.52763" lon="6.36045">
        <ele>301.5106201</ele>
        <time>2011-04-10T12:01:50Z</time>
      </trkpt>
      <trkpt lat="43.52791" lon="6.36076">
        <ele>300.0687256</ele>
        <time>2011-04-10T12:02:02Z</time>
      </trkpt>
      <trkpt lat="43.52858" lon="6.36113">
        <ele>312.5657959</ele>
        <time>2011-04-10T12:02:17Z</time>
      </trkpt>
      <trkpt lat="43.52906" lon="6.36121">
        <ele>314.9691162</ele>
        <time>2011-04-10T12:02:28Z</time>
      </trkpt>
      <trkpt lat="43.52957" lon="6.36116">
        <ele>309.2011719</ele>
        <time>2011-04-10T12:02:40Z</time>
      </trkpt>
      <trkpt lat="43.52997" lon="6.36104">
        <ele>301.991333</ele>
        <time>2011-04-10T12:02:49Z</time>
      </trkpt>
      <trkpt lat="43.53049" lon="6.36127">
        <ele>296.7041016</ele>
        <time>2011-04-10T12:03:03Z</time>
      </trkpt>
      <trkpt lat="43.53092" lon="6.36149">
        <ele>297.6654053</ele>
        <time>2011-04-10T12:03:16Z</time>
      </trkpt>
      <trkpt lat="43.5311" lon="6.36195">
        <ele>305.355957</ele>
        <time>2011-04-10T12:03:29Z</time>
      </trkpt>
      <trkpt lat="43.53112" lon="6.36201">
        <ele>283.7261963</ele>
        <time>2011-04-10T12:05:44Z</time>
      </trkpt>
      <trkpt lat="43.53088" lon="6.36154">
        <ele>282.7650146</ele>
        <time>2011-04-10T12:06:21Z</time>
      </trkpt>
      <trkpt lat="43.53052" lon="6.36139">
        <ele>280.3616943</ele>
        <time>2011-04-10T12:06:53Z</time>
      </trkpt>
      <trkpt lat="43.53029" lon="6.3616">
        <ele>279.4002686</ele>
        <time>2011-04-10T12:07:28Z</time>
      </trkpt>
      <trkpt lat="43.53002" lon="6.36196">
        <ele>286.6102295</ele>
        <time>2011-04-10T12:08:14Z</time>
      </trkpt>
      <trkpt lat="43.52953" lon="6.36215">
        <ele>289.9748535</ele>
        <time>2011-04-10T12:08:59Z</time>
      </trkpt>
      <trkpt lat="43.5291" lon="6.3624">
        <ele>293.3393555</ele>
        <time>2011-04-10T12:09:18Z</time>
      </trkpt>
      <trkpt lat="43.52853" lon="6.36249">
        <ele>298.626709</ele>
        <time>2011-04-10T12:09:45Z</time>
      </trkpt>
      <trkpt lat="43.52791" lon="6.36226">
        <ele>300.0687256</ele>
        <time>2011-04-10T12:10:14Z</time>
      </trkpt>
      <trkpt lat="43.52762" lon="6.36259">
        <ele>300.5493164</ele>
        <time>2011-04-10T12:10:29Z</time>
      </trkpt>
      <trkpt lat="43.52719" lon="6.36266">
        <ele>297.1846924</ele>
        <time>2011-04-10T12:10:37Z</time>
      </trkpt>
      <trkpt lat="43.5269" lon="6.36315">
        <ele>292.8587646</ele>
        <time>2011-04-10T12:10:47Z</time>
      </trkpt>
      <trkpt lat="43.52658" lon="6.36352">
        <ele>301.991333</ele>
        <time>2011-04-10T12:11:35Z</time>
      </trkpt>
      <trkpt lat="43.52625" lon="6.36327">
        <ele>302.9525146</ele>
        <time>2011-04-10T12:11:51Z</time>
      </trkpt>
      <trkpt lat="43.52588" lon="6.3631">
        <ele>306.7978516</ele>
        <time>2011-04-10T12:12:09Z</time>
      </trkpt>
      <trkpt lat="43.52565" lon="6.36376">
        <ele>309.6818848</ele>
        <time>2011-04-10T12:12:27Z</time>
      </trkpt>
      <trkpt lat="43.52533" lon="6.36461">
        <ele>318.8143311</ele>
        <time>2011-04-10T12:12:53Z</time>
      </trkpt>
      <trkpt lat="43.52502" lon="6.36497">
        <ele>320.2563477</ele>
        <time>2011-04-10T12:13:20Z</time>
      </trkpt>
      <trkpt lat="43.52458" lon="6.36482">
        <ele>321.6983643</ele>
        <time>2011-04-10T12:13:47Z</time>
      </trkpt>
      <trkpt lat="43.52432" lon="6.36505">
        <ele>323.1403809</ele>
        <time>2011-04-10T12:20:38Z</time>
      </trkpt>
      <trkpt lat="43.52417" lon="6.36554">
        <ele>322.659668</ele>
        <time>2011-04-10T12:20:48Z</time>
      </trkpt>
      <trkpt lat="43.52433" lon="6.366">
        <ele>320.7370605</ele>
        <time>2011-04-10T12:21:02Z</time>
      </trkpt>
      <trkpt lat="43.52459" lon="6.36632">
        <ele>314.4884033</ele>
        <time>2011-04-10T12:21:15Z</time>
      </trkpt>
      <trkpt lat="43.52461" lon="6.36714">
        <ele>306.7978516</ele>
        <time>2011-04-10T12:21:29Z</time>
      </trkpt>
      <trkpt lat="43.52463" lon="6.36783">
        <ele>300.5493164</ele>
        <time>2011-04-10T12:21:40Z</time>
      </trkpt>
      <trkpt lat="43.52484" lon="6.36838">
        <ele>292.3781738</ele>
        <time>2011-04-10T12:21:51Z</time>
      </trkpt>
      <trkpt lat="43.52461" lon="6.36878">
        <ele>286.1295166</ele>
        <time>2011-04-10T12:22:04Z</time>
      </trkpt>
      <trkpt lat="43.52421" lon="6.36864">
        <ele>281.322998</ele>
        <time>2011-04-10T12:22:11Z</time>
      </trkpt>
      <trkpt lat="43.52402" lon="6.36848">
        <ele>276.0356445</ele>
        <time>2011-04-10T12:22:23Z</time>
      </trkpt>
      <trkpt lat="43.52391" lon="6.36799">
        <ele>276.5163574</ele>
        <time>2011-04-10T12:22:34Z</time>
      </trkpt>
      <trkpt lat="43.52341" lon="6.36783">
        <ele>269.3065186</ele>
        <time>2011-04-10T12:24:39Z</time>
      </trkpt>
      <trkpt lat="43.52303" lon="6.36786">
        <ele>273.1518555</ele>
        <time>2011-04-10T12:24:55Z</time>
      </trkpt>
      <trkpt lat="43.5228" lon="6.36862">
        <ele>272.6711426</ele>
        <time>2011-04-10T12:26:01Z</time>
      </trkpt>
      <trkpt lat="43.52252" lon="6.36911">
        <ele>270.2677002</ele>
        <time>2011-04-10T12:26:11Z</time>
      </trkpt>
      <trkpt lat="43.52199" lon="6.3697">
        <ele>265.9418945</ele>
        <time>2011-04-10T12:26:30Z</time>
      </trkpt>
      <trkpt lat="43.52166" lon="6.37009">
        <ele>263.5385742</ele>
        <time>2011-04-10T12:26:43Z</time>
      </trkpt>
      <trkpt lat="43.52134" lon="6.37053">
        <ele>261.1352539</ele>
        <time>2011-04-10T12:26:52Z</time>
      </trkpt>
      <trkpt lat="43.52094" lon="6.37109">
        <ele>257.2900391</ele>
        <time>2011-04-10T12:27:02Z</time>
      </trkpt>
      <trkpt lat="43.5206" lon="6.3713">
        <ele>253.925415</ele>
        <time>2011-04-10T12:27:08Z</time>
      </trkpt>
      <trkpt lat="43.52017" lon="6.37118">
        <ele>251.5220947</ele>
        <time>2011-04-10T12:27:14Z</time>
      </trkpt>
      <trkpt lat="43.51959" lon="6.37108">
        <ele>250.560791</ele>
        <time>2011-04-10T12:27:25Z</time>
      </trkpt>
      <trkpt lat="43.51917" lon="6.37112">
        <ele>248.6381836</ele>
        <time>2011-04-10T12:27:32Z</time>
      </trkpt>
      <trkpt lat="43.51888" lon="6.3709">
        <ele>243.3508301</ele>
        <time>2011-04-10T12:27:41Z</time>
      </trkpt>
      <trkpt lat="43.51841" lon="6.37084">
        <ele>237.1022949</ele>
        <time>2011-04-10T12:27:49Z</time>
      </trkpt>
      <trkpt lat="43.51828" lon="6.37037">
        <ele>230.8537598</ele>
        <time>2011-04-10T12:28:06Z</time>
      </trkpt>
      <trkpt lat="43.51831" lon="6.36977">
        <ele>233.2570801</ele>
        <time>2011-04-10T12:28:18Z</time>
      </trkpt>
      <trkpt lat="43.51835" lon="6.36942">
        <ele>258.7319336</ele>
        <time>2011-04-10T12:28:50Z</time>
      </trkpt>
      <trkpt lat="43.51841" lon="6.36873">
        <ele>271.7097168</ele>
        <time>2011-04-10T12:29:24Z</time>
      </trkpt>
      <trkpt lat="43.51852" lon="6.36809">
        <ele>269.7871094</ele>
        <time>2011-04-10T12:29:59Z</time>
      </trkpt>
      <trkpt lat="43.51825" lon="6.3675">
        <ele>277.958252</ele>
        <time>2011-04-10T12:30:38Z</time>
      </trkpt>
      <trkpt lat="43.51803" lon="6.36716">
        <ele>279.8808594</ele>
        <time>2011-04-10T12:34:36Z</time>
      </trkpt>
      <trkpt lat="43.51753" lon="6.36679">
        <ele>280.3616943</ele>
        <time>2011-04-10T12:35:20Z</time>
      </trkpt>
      <trkpt lat="43.51743" lon="6.3661">
        <ele>277.958252</ele>
        <time>2011-04-10T12:36:04Z</time>
      </trkpt>
      <trkpt lat="43.51753" lon="6.36551">
        <ele>271.7097168</ele>
        <time>2011-04-10T12:36:38Z</time>
      </trkpt>
      <trkpt lat="43.51794" lon="6.3653">
        <ele>274.59375</ele>
        <time>2011-04-10T12:37:15Z</time>
      </trkpt>
      <trkpt lat="43.5183" lon="6.36531">
        <ele>282.7650146</ele>
        <time>2011-04-10T12:37:39Z</time>
      </trkpt>
      <trkpt lat="43.51869" lon="6.36504">
        <ele>290.9361572</ele>
        <time>2011-04-10T12:38:07Z</time>
      </trkpt>
      <trkpt lat="43.5186" lon="6.36465">
        <ele>304.3946533</ele>
        <time>2011-04-10T12:38:36Z</time>
      </trkpt>
      <trkpt lat="43.51816" lon="6.36441">
        <ele>319.2950439</ele>
        <time>2011-04-10T12:39:03Z</time>
      </trkpt>
      <trkpt lat="43.51848" lon="6.36407">
        <ele>332.75354</ele>
        <time>2011-04-10T12:39:40Z</time>
      </trkpt>
      <trkpt lat="43.51879" lon="6.36372">
        <ele>340.4440918</ele>
        <time>2011-04-10T12:40:13Z</time>
      </trkpt>
      <trkpt lat="43.51897" lon="6.36323">
        <ele>348.1346436</ele>
        <time>2011-04-10T12:40:44Z</time>
      </trkpt>
      <trkpt lat="43.51885" lon="6.36268">
        <ele>351.4991455</ele>
        <time>2011-04-10T12:41:13Z</time>
      </trkpt>
      <trkpt lat="43.5185" lon="6.36249">
        <ele>352.9411621</ele>
        <time>2011-04-10T12:41:37Z</time>
      </trkpt>
      <trkpt lat="43.51832" lon="6.36202">
        <ele>355.3444824</ele>
        <time>2011-04-10T12:42:01Z</time>
      </trkpt>
      <trkpt lat="43.51813" lon="6.36157">
        <ele>360.151123</ele>
        <time>2011-04-10T12:42:28Z</time>
      </trkpt>
      <trkpt lat="43.5179" lon="6.361">
        <ele>365.9189453</ele>
        <time>2011-04-10T12:43:02Z</time>
      </trkpt>
      <trkpt lat="43.51811" lon="6.36049">
        <ele>370.7255859</ele>
        <time>2011-04-10T12:43:25Z</time>
      </trkpt>
      <trkpt lat="43.51823" lon="6.35997">
        <ele>373.6094971</ele>
        <time>2011-04-10T12:43:47Z</time>
      </trkpt>
      <trkpt lat="43.51843" lon="6.35943">
        <ele>374.0900879</ele>
        <time>2011-04-10T12:44:03Z</time>
      </trkpt>
      <trkpt lat="43.51844" lon="6.35874">
        <ele>375.0515137</ele>
        <time>2011-04-10T12:44:24Z</time>
      </trkpt>
      <trkpt lat="43.51802" lon="6.35835">
        <ele>370.7255859</ele>
        <time>2011-04-10T12:44:50Z</time>
      </trkpt>
      <trkpt lat="43.51767" lon="6.35768">
        <ele>368.3222656</ele>
        <time>2011-04-10T12:45:15Z</time>
      </trkpt>
      <trkpt lat="43.51752" lon="6.35714">
        <ele>371.6868896</ele>
        <time>2011-04-10T12:45:33Z</time>
      </trkpt>
      <trkpt lat="43.51716" lon="6.35751">
        <ele>381.7806396</ele>
        <time>2011-04-10T12:45:51Z</time>
      </trkpt>
      <trkpt lat="43.51664" lon="6.35727">
        <ele>396.2005615</ele>
        <time>2011-04-10T12:46:12Z</time>
      </trkpt>
      <trkpt lat="43.51624" lon="6.3571">
        <ele>396.2005615</ele>
        <time>2011-04-10T12:46:29Z</time>
      </trkpt>
      <trkpt lat="43.51579" lon="6.35703">
        <ele>385.6259766</ele>
        <time>2011-04-10T12:46:46Z</time>
      </trkpt>
      <trkpt lat="43.51522" lon="6.35709">
        <ele>370.244873</ele>
        <time>2011-04-10T12:47:08Z</time>
      </trkpt>
      <trkpt lat="43.51494" lon="6.35747">
        <ele>364.9576416</ele>
        <time>2011-04-10T12:47:22Z</time>
      </trkpt>
      <trkpt lat="43.51473" lon="6.35797">
        <ele>360.6317139</ele>
        <time>2011-04-10T12:47:37Z</time>
      </trkpt>
      <trkpt lat="43.51467" lon="6.35855">
        <ele>347.6539307</ele>
        <time>2011-04-10T12:53:58Z</time>
      </trkpt>
      <trkpt lat="43.51453" lon="6.35904">
        <ele>345.7313232</ele>
        <time>2011-04-10T12:55:38Z</time>
      </trkpt>
      <trkpt lat="43.51435" lon="6.35869">
        <ele>345.7313232</ele>
        <time>2011-04-10T12:55:51Z</time>
      </trkpt>
      <trkpt lat="43.51399" lon="6.35853">
        <ele>337.0794678</ele>
        <time>2011-04-10T12:56:07Z</time>
      </trkpt>
      <trkpt lat="43.51371" lon="6.35847">
        <ele>329.388916</ele>
        <time>2011-04-10T12:56:23Z</time>
      </trkpt>
      <trkpt lat="43.51346" lon="6.35835">
        <ele>323.6209717</ele>
        <time>2011-04-10T12:56:42Z</time>
      </trkpt>
      <trkpt lat="43.51324" lon="6.35859">
        <ele>316.4110107</ele>
        <time>2011-04-10T12:57:03Z</time>
      </trkpt>
      <trkpt lat="43.51295" lon="6.35904">
        <ele>313.0465088</ele>
        <time>2011-04-10T12:57:24Z</time>
      </trkpt>
      <trkpt lat="43.51291" lon="6.35952">
        <ele>314.0078125</ele>
        <time>2011-04-10T12:57:39Z</time>
      </trkpt>
      <trkpt lat="43.5129" lon="6.36017">
        <ele>304.8752441</ele>
        <time>2011-04-10T13:00:54Z</time>
      </trkpt>
      <trkpt lat="43.51281" lon="6.3597">
        <ele>304.8752441</ele>
        <time>2011-04-10T13:02:06Z</time>
      </trkpt>
      <trkpt lat="43.51292" lon="6.35909">
        <ele>309.6818848</ele>
        <time>2011-04-10T13:02:28Z</time>
      </trkpt>
      <trkpt lat="43.51293" lon="6.35847">
        <ele>307.7592773</ele>
        <time>2011-04-10T13:02:42Z</time>
      </trkpt>
      <trkpt lat="43.513" lon="6.35785">
        <ele>315.9304199</ele>
        <time>2011-04-10T13:02:58Z</time>
      </trkpt>
      <trkpt lat="43.51299" lon="6.35721">
        <ele>321.2177734</ele>
        <time>2011-04-10T13:03:15Z</time>
      </trkpt>
      <trkpt lat="43.51297" lon="6.35672">
        <ele>323.6209717</ele>
        <time>2011-04-10T13:03:27Z</time>
      </trkpt>
      <trkpt lat="43.51291" lon="6.3562">
        <ele>321.2177734</ele>
        <time>2011-04-10T13:03:38Z</time>
      </trkpt>
      <trkpt lat="43.51273" lon="6.35575">
        <ele>316.4110107</ele>
        <time>2011-04-10T13:03:50Z</time>
      </trkpt>
      <trkpt lat="43.51274" lon="6.3549">
        <ele>318.3336182</ele>
        <time>2011-04-10T13:04:12Z</time>
      </trkpt>
      <trkpt lat="43.51282" lon="6.35426">
        <ele>323.1403809</ele>
        <time>2011-04-10T13:04:28Z</time>
      </trkpt>
      <trkpt lat="43.51292" lon="6.35371">
        <ele>326.0241699</ele>
        <time>2011-04-10T13:04:40Z</time>
      </trkpt>
      <trkpt lat="43.51315" lon="6.35282">
        <ele>331.3115234</ele>
        <time>2011-04-10T13:04:59Z</time>
      </trkpt>
      <trkpt lat="43.5133" lon="6.35233">
        <ele>331.7921143</ele>
        <time>2011-04-10T13:05:10Z</time>
      </trkpt>
      <trkpt lat="43.51344" lon="6.35175">
        <ele>333.2341309</ele>
        <time>2011-04-10T13:05:25Z</time>
      </trkpt>
      <trkpt lat="43.51362" lon="6.35131">
        <ele>337.5600586</ele>
        <time>2011-04-10T13:05:37Z</time>
      </trkpt>
      <trkpt lat="43.51369" lon="6.35071">
        <ele>341.4052734</ele>
        <time>2011-04-10T13:05:51Z</time>
      </trkpt>
      <trkpt lat="43.51383" lon="6.35014">
        <ele>350.5378418</ele>
        <time>2011-04-10T13:06:05Z</time>
      </trkpt>
      <trkpt lat="43.51382" lon="6.34947">
        <ele>350.5378418</ele>
        <time>2011-04-10T13:06:18Z</time>
      </trkpt>
      <trkpt lat="43.51359" lon="6.34883">
        <ele>343.3278809</ele>
        <time>2011-04-10T13:06:33Z</time>
      </trkpt>
      <trkpt lat="43.51335" lon="6.3483">
        <ele>341.4052734</ele>
        <time>2011-04-10T13:06:45Z</time>
      </trkpt>
      <trkpt lat="43.5131" lon="6.34778">
        <ele>339.9633789</ele>
        <time>2011-04-10T13:06:58Z</time>
      </trkpt>
      <trkpt lat="43.51283" lon="6.34798">
        <ele>338.0407715</ele>
        <time>2011-04-10T13:07:18Z</time>
      </trkpt>
      <trkpt lat="43.51305" lon="6.34846">
        <ele>338.0407715</ele>
        <time>2011-04-10T13:07:30Z</time>
      </trkpt>
      <trkpt lat="43.51339" lon="6.34906">
        <ele>336.1181641</ele>
        <time>2011-04-10T13:07:43Z</time>
      </trkpt>
      <trkpt lat="43.51344" lon="6.34959">
        <ele>332.2728271</ele>
        <time>2011-04-10T13:07:51Z</time>
      </trkpt>
      <trkpt lat="43.51339" lon="6.3502">
        <ele>328.9083252</ele>
        <time>2011-04-10T13:08:01Z</time>
      </trkpt>
      <trkpt lat="43.51327" lon="6.35067">
        <ele>329.8695068</ele>
        <time>2011-04-10T13:08:09Z</time>
      </trkpt>
      <trkpt lat="43.5131" lon="6.35124">
        <ele>335.6373291</ele>
        <time>2011-04-10T13:08:20Z</time>
      </trkpt>
      <trkpt lat="43.51287" lon="6.35198">
        <ele>351.0184326</ele>
        <time>2011-04-10T13:08:33Z</time>
      </trkpt>
      <trkpt lat="43.51266" lon="6.35262">
        <ele>365.4383545</ele>
        <time>2011-04-10T13:08:44Z</time>
      </trkpt>
      <trkpt lat="43.51247" lon="6.35331">
        <ele>377.454834</ele>
        <time>2011-04-10T13:08:59Z</time>
      </trkpt>
      <trkpt lat="43.51232" lon="6.35397">
        <ele>378.8968506</ele>
        <time>2011-04-10T13:09:16Z</time>
      </trkpt>
      <trkpt lat="43.51225" lon="6.35446">
        <ele>373.6094971</ele>
        <time>2011-04-10T13:09:30Z</time>
      </trkpt>
      <trkpt lat="43.51231" lon="6.35508">
        <ele>364.9576416</ele>
        <time>2011-04-10T13:09:50Z</time>
      </trkpt>
      <trkpt lat="43.51226" lon="6.35555">
        <ele>353.9025879</ele>
        <time>2011-04-10T13:10:18Z</time>
      </trkpt>
      <trkpt lat="43.5121" lon="6.35591">
        <ele>353.421875</ele>
        <time>2011-04-10T13:10:54Z</time>
      </trkpt>
      <trkpt lat="43.512" lon="6.35631">
        <ele>367.8415527</ele>
        <time>2011-04-10T13:11:36Z</time>
      </trkpt>
      <trkpt lat="43.51164" lon="6.35689">
        <ele>383.7032471</ele>
        <time>2011-04-10T13:12:02Z</time>
      </trkpt>
      <trkpt lat="43.51114" lon="6.35733">
        <ele>397.6424561</ele>
        <time>2011-04-10T13:12:25Z</time>
      </trkpt>
      <trkpt lat="43.51127" lon="6.35793">
        <ele>390.913208</ele>
        <time>2011-04-10T13:12:39Z</time>
      </trkpt>
      <trkpt lat="43.51083" lon="6.35812">
        <ele>387.0679932</ele>
        <time>2011-04-10T13:13:02Z</time>
      </trkpt>
      <trkpt lat="43.51042" lon="6.35817">
        <ele>393.3165283</ele>
        <time>2011-04-10T13:13:23Z</time>
      </trkpt>
      <trkpt lat="43.51017" lon="6.35853">
        <ele>366.880249</ele>
        <time>2011-04-10T13:18:38Z</time>
      </trkpt>
      <trkpt lat="43.51019" lon="6.35913">
        <ele>357.2670898</ele>
        <time>2011-04-10T13:20:41Z</time>
      </trkpt>
      <trkpt lat="43.51037" lon="6.35958">
        <ele>358.7089844</ele>
        <time>2011-04-10T13:20:50Z</time>
      </trkpt>
      <trkpt lat="43.5107" lon="6.36012">
        <ele>360.151123</ele>
        <time>2011-04-10T13:21:00Z</time>
      </trkpt>
      <trkpt lat="43.51102" lon="6.36053">
        <ele>357.2670898</ele>
        <time>2011-04-10T13:21:10Z</time>
      </trkpt>
      <trkpt lat="43.51115" lon="6.36099">
        <ele>356.3057861</ele>
        <time>2011-04-10T13:21:19Z</time>
      </trkpt>
      <trkpt lat="43.51145" lon="6.36124">
        <ele>353.9025879</ele>
        <time>2011-04-10T13:21:33Z</time>
      </trkpt>
      <trkpt lat="43.51158" lon="6.36176">
        <ele>352.4605713</ele>
        <time>2011-04-10T13:21:44Z</time>
      </trkpt>
      <trkpt lat="43.5116" lon="6.36225">
        <ele>353.9025879</ele>
        <time>2011-04-10T13:21:55Z</time>
      </trkpt>
      <trkpt lat="43.51136" lon="6.36309">
        <ele>363.5157471</ele>
        <time>2011-04-10T13:22:14Z</time>
      </trkpt>
      <trkpt lat="43.51121" lon="6.36374">
        <ele>372.6481934</ele>
        <time>2011-04-10T13:22:30Z</time>
      </trkpt>
      <trkpt lat="43.51127" lon="6.36425">
        <ele>371.6868896</ele>
        <time>2011-04-10T13:22:40Z</time>
      </trkpt>
      <trkpt lat="43.51143" lon="6.36502">
        <ele>361.1124268</ele>
        <time>2011-04-10T13:22:54Z</time>
      </trkpt>
      <trkpt lat="43.51147" lon="6.36558">
        <ele>347.6539307</ele>
        <time>2011-04-10T13:23:03Z</time>
      </trkpt>
      <trkpt lat="43.51112" lon="6.36633">
        <ele>348.6152344</ele>
        <time>2011-04-10T13:23:25Z</time>
      </trkpt>
      <trkpt lat="43.51129" lon="6.36695">
        <ele>357.2670898</ele>
        <time>2011-04-10T13:23:46Z</time>
      </trkpt>
      <trkpt lat="43.51122" lon="6.36748">
        <ele>364.9576416</ele>
        <time>2011-04-10T13:24:00Z</time>
      </trkpt>
      <trkpt lat="43.51118" lon="6.36798">
        <ele>374.0900879</ele>
        <time>2011-04-10T13:24:19Z</time>
      </trkpt>
      <trkpt lat="43.51117" lon="6.3685">
        <ele>356.3057861</ele>
        <time>2011-04-10T13:24:44Z</time>
      </trkpt>
      <trkpt lat="43.5112" lon="6.3689">
        <ele>349.5765381</ele>
        <time>2011-04-10T13:24:58Z</time>
      </trkpt>
      <trkpt lat="43.51123" lon="6.3696">
        <ele>349.0958252</ele>
        <time>2011-04-10T13:25:22Z</time>
      </trkpt>
      <trkpt lat="43.51186" lon="6.37">
        <ele>350.057251</ele>
        <time>2011-04-10T13:25:38Z</time>
      </trkpt>
      <trkpt lat="43.51232" lon="6.37026">
        <ele>350.057251</ele>
        <time>2011-04-10T13:25:46Z</time>
      </trkpt>
      <trkpt lat="43.51294" lon="6.37042">
        <ele>347.1732178</ele>
        <time>2011-04-10T13:25:57Z</time>
      </trkpt>
      <trkpt lat="43.5133" lon="6.37044">
        <ele>344.7700195</ele>
        <time>2011-04-10T13:26:03Z</time>
      </trkpt>
      <trkpt lat="43.51383" lon="6.3705">
        <ele>336.1181641</ele>
        <time>2011-04-10T13:26:16Z</time>
      </trkpt>
      <trkpt lat="43.51418" lon="6.37106">
        <ele>329.8695068</ele>
        <time>2011-04-10T13:26:32Z</time>
      </trkpt>
      <trkpt lat="43.51442" lon="6.3714">
        <ele>326.9855957</ele>
        <time>2011-04-10T13:26:56Z</time>
      </trkpt>
      <trkpt lat="43.51488" lon="6.37185">
        <ele>330.3502197</ele>
        <time>2011-04-10T13:27:15Z</time>
      </trkpt>
      <trkpt lat="43.51518" lon="6.37247">
        <ele>332.2728271</ele>
        <time>2011-04-10T13:27:41Z</time>
      </trkpt>
      <trkpt lat="43.51534" lon="6.3729">
        <ele>324.5822754</ele>
        <time>2011-04-10T13:27:56Z</time>
      </trkpt>
      <trkpt lat="43.51549" lon="6.37321">
        <ele>321.6983643</ele>
        <time>2011-04-10T13:28:13Z</time>
      </trkpt>
      <trkpt lat="43.5159" lon="6.37288">
        <ele>310.6430664</ele>
        <time>2011-04-10T13:28:26Z</time>
      </trkpt>
      <trkpt lat="43.5163" lon="6.3727">
        <ele>293.8200684</ele>
        <time>2011-04-10T13:28:44Z</time>
      </trkpt>
      <trkpt lat="43.51666" lon="6.37262">
        <ele>267.3839111</ele>
        <time>2011-04-10T13:29:51Z</time>
      </trkpt>
      <trkpt lat="43.51689" lon="6.37273">
        <ele>229.892334</ele>
        <time>2011-04-10T13:41:28Z</time>
      </trkpt>
      <trkpt lat="43.51733" lon="6.3725">
        <ele>231.8149414</ele>
        <time>2011-04-10T13:42:45Z</time>
      </trkpt>
      <trkpt lat="43.51746" lon="6.37194">
        <ele>243.3508301</ele>
        <time>2011-04-10T13:43:14Z</time>
      </trkpt>
      <trkpt lat="43.51774" lon="6.37149">
        <ele>240.9476318</ele>
        <time>2011-04-10T13:43:43Z</time>
      </trkpt>
      <trkpt lat="43.51803" lon="6.37094">
        <ele>240.467041</ele>
        <time>2011-04-10T13:44:14Z</time>
      </trkpt>
      <trkpt lat="43.51824" lon="6.37039">
        <ele>247.6767578</ele>
        <time>2011-04-10T13:44:41Z</time>
      </trkpt>
      <trkpt lat="43.51825" lon="6.3699">
        <ele>250.560791</ele>
        <time>2011-04-10T13:44:58Z</time>
      </trkpt>
      <trkpt lat="43.5183" lon="6.3696">
        <ele>265.9418945</ele>
        <time>2011-04-10T13:45:30Z</time>
      </trkpt>
      <trkpt lat="43.51838" lon="6.36902">
        <ele>283.7261963</ele>
        <time>2011-04-10T13:46:07Z</time>
      </trkpt>
      <trkpt lat="43.51841" lon="6.36853">
        <ele>279.4002686</ele>
        <time>2011-04-10T13:46:50Z</time>
      </trkpt>
      <trkpt lat="43.5184" lon="6.36792">
        <ele>276.0356445</ele>
        <time>2011-04-10T13:47:52Z</time>
      </trkpt>
      <trkpt lat="43.51809" lon="6.36738">
        <ele>280.8424072</ele>
        <time>2011-04-10T13:48:23Z</time>
      </trkpt>
      <trkpt lat="43.51777" lon="6.36706">
        <ele>286.1295166</ele>
        <time>2011-04-10T13:48:48Z</time>
      </trkpt>
      <trkpt lat="43.51729" lon="6.36675">
        <ele>279.4002686</ele>
        <time>2011-04-10T13:49:22Z</time>
      </trkpt>
      <trkpt lat="43.51692" lon="6.36673">
        <ele>276.5163574</ele>
        <time>2011-04-10T13:51:20Z</time>
      </trkpt>
      <trkpt lat="43.51719" lon="6.36678">
        <ele>268.8258057</ele>
        <time>2011-04-10T14:00:17Z</time>
      </trkpt>
      <trkpt lat="43.51738" lon="6.36611">
        <ele>273.1518555</ele>
        <time>2011-04-10T14:00:50Z</time>
      </trkpt>
      <trkpt lat="43.51749" lon="6.36561">
        <ele>275.5550537</ele>
        <time>2011-04-10T14:01:14Z</time>
      </trkpt>
      <trkpt lat="43.51724" lon="6.36518">
        <ele>284.6876221</ele>
        <time>2011-04-10T14:01:44Z</time>
      </trkpt>
      <trkpt lat="43.51684" lon="6.36495">
        <ele>289.9748535</ele>
        <time>2011-04-10T14:02:09Z</time>
      </trkpt>
      <trkpt lat="43.5166" lon="6.36472">
        <ele>294.7813721</ele>
        <time>2011-04-10T14:02:33Z</time>
      </trkpt>
      <trkpt lat="43.51687" lon="6.36459">
        <ele>282.7650146</ele>
        <time>2011-04-10T14:59:00Z</time>
      </trkpt>
      <trkpt lat="43.51688" lon="6.36462">
        <ele>280.8424072</ele>
        <time>2011-04-10T15:00:26Z</time>
      </trkpt>
    </trkseg>
  </trk>
</gpx>